Time;durP1;ratioP1;P1;durP2;ratioP2;P2;SDS_P1;SDS_P2;PMS_P1;PMS_P2;Temp;Humidity;BMP_temperature;BMP_pressure;BME280_temperature;BME280_humidity;BME280_pressure;Samples;Min_cycle;Max_cycle;Signal;HPM_P1;HPM_P2
2023/05/16 00:01:34;;;;;;;21.35;4.25;;;11.20;99.90;;;;;;4115548;28;20134;-57
2023/05/16 00:03:36;;;;;;;18.90;4.40;;;11.20;99.90;;;;;;4115737;28;20575;-57
2023/05/16 00:05:39;;;;;;;25.70;4.20;;;11.20;99.90;;;;;;4115758;28;20491;-58
2023/05/16 00:07:42;;;;;;;23.58;4.35;;;11.20;99.90;;;;;;4114867;28;20536;-56
2023/05/16 00:09:46;;;;;;;17.73;5.07;;;11.10;99.90;;;;;;4115231;28;20070;-54
2023/05/16 00:11:49;;;;;;;18.27;4.40;;;11.00;99.90;;;;;;4115496;28;20130;-54
2023/05/16 00:13:51;;;;;;;18.20;3.60;;;11.00;99.90;;;;;;4115650;28;20467;-53
2023/05/16 00:15:54;;;;;;;19.38;3.90;;;11.00;99.90;;;;;;4115230;28;20051;-52
2023/05/16 00:17:58;;;;;;;19.98;4.07;;;10.90;99.90;;;;;;4114591;28;20059;-53
2023/05/16 00:20:06;;;;;;;24.92;4.82;;;11.00;99.90;;;;;;4115368;28;20493;-53
2023/05/16 00:22:08;;;;;;;18.50;4.70;;;10.90;99.90;;;;;;4115269;28;20051;-54
2023/05/16 00:24:10;;;;;;;25.38;4.45;;;10.80;99.90;;;;;;4114863;28;20057;-55
2023/05/16 00:26:13;;;;;;;25.17;3.97;;;10.80;99.90;;;;;;4122759;28;20085;-58
2023/05/16 00:28:16;;;;;;;27.67;5.00;;;10.80;99.90;;;;;;4130458;28;20073;-58
2023/05/16 00:30:18;;;;;;;26.63;3.78;;;10.90;99.90;;;;;;4114212;28;20086;-57
2023/05/16 00:32:21;;;;;;;19.45;4.05;;;10.80;99.90;;;;;;4131332;28;20053;-57
2023/05/16 00:34:24;;;;;;;21.63;4.32;;;10.80;99.90;;;;;;4122536;28;20043;-56
2023/05/16 00:36:26;;;;;;;17.95;4.07;;;10.80;99.90;;;;;;4115269;28;20055;-57
2023/05/16 00:38:28;;;;;;;16.30;3.60;;;10.70;99.90;;;;;;4113863;28;20085;-58
2023/05/16 00:40:30;;;;;;;21.30;4.63;;;10.80;99.90;;;;;;4115261;28;20046;-53
2023/05/16 00:42:34;;;;;;;19.00;3.97;;;10.70;99.90;;;;;;4115328;28;20050;-57
2023/05/16 00:44:36;;;;;;;23.83;3.83;;;10.90;99.90;;;;;;4114998;28;20047;-53
2023/05/16 00:46:38;;;;;;;18.20;4.13;;;10.90;99.90;;;;;;4115128;28;20384;-54
2023/05/16 00:48:41;;;;;;;18.05;3.38;;;10.80;99.90;;;;;;4114158;28;20669;-54
2023/05/16 00:50:43;;;;;;;25.35;4.18;;;10.80;99.90;;;;;;4115378;28;20070;-54
2023/05/16 00:52:45;;;;;;;20.40;4.07;;;10.70;99.90;;;;;;4114982;28;20051;-56
2023/05/16 00:54:47;;;;;;;13.68;3.28;;;10.70;99.90;;;;;;4115194;28;20062;-54
2023/05/16 00:56:50;;;;;;;24.23;4.95;;;10.70;99.90;;;;;;4115168;28;20492;-55
2023/05/16 00:58:56;;;;;;;22.45;4.25;;;10.70;99.90;;;;;;4114153;28;20073;-54
2023/05/16 01:00:58;;;;;;;19.65;4.03;;;10.60;99.90;;;;;;4113742;28;20094;-54
2023/05/16 01:03:00;;;;;;;21.30;4.38;;;10.40;99.90;;;;;;4115203;28;20420;-56
2023/05/16 01:05:07;;;;;;;27.00;4.80;;;10.50;99.90;;;;;;4114779;28;20075;-55
2023/05/16 01:07:09;;;;;;;21.30;4.03;;;10.50;99.90;;;;;;4113577;28;20580;-55
2023/05/16 01:09:12;;;;;;;24.10;3.63;;;10.50;99.90;;;;;;4114058;28;20046;-53
2023/05/16 01:11:26;;;;;;;21.15;3.38;;;10.60;99.90;;;;;;4114934;28;20050;-54
2023/05/16 01:13:35;;;;;;;18.58;4.18;;;10.50;99.90;;;;;;4115197;28;20061;-57
2023/05/16 01:15:44;;;;;;;28.98;4.45;;;10.50;99.90;;;;;;4115048;28;20055;-58
2023/05/16 01:17:56;;;;;;;24.13;3.78;;;10.50;99.90;;;;;;4114928;28;20055;-58
2023/05/16 01:20:05;;;;;;;21.65;4.07;;;10.40;99.90;;;;;;4114812;28;20047;-53
2023/05/16 01:22:15;;;;;;;21.13;3.90;;;10.50;99.90;;;;;;4115081;28;20061;-56
2023/05/16 01:24:26;;;;;;;18.75;4.55;;;10.40;99.90;;;;;;4114539;28;20071;-55
2023/05/16 01:26:31;;;;;;;27.02;4.82;;;10.40;99.90;;;;;;4124256;28;20384;-55
2023/05/16 01:28:33;;;;;;;;;;;10.30;99.90;;;;;;4134039;28;20058;-58
2023/05/16 01:30:38;;;;;;;19.60;3.65;;;10.30;99.90;;;;;;4134479;28;20309;-57
2023/05/16 01:32:40;;;;;;;;;;;10.20;99.90;;;;;;4134437;28;20050;-54
2023/05/16 01:34:42;;;;;;;18.85;3.40;;;10.40;99.90;;;;;;4122651;28;19922;-54
2023/05/16 01:36:49;;;;;;;17.10;3.38;;;10.40;99.90;;;;;;4117351;28;20050;-55
2023/05/16 01:39:01;;;;;;;20.23;4.18;;;10.50;99.90;;;;;;4116830;28;20047;-55
2023/05/16 01:41:10;;;;;;;23.88;4.10;;;10.50;99.90;;;;;;4117642;28;20046;-56
2023/05/16 01:43:19;;;;;;;17.02;2.75;;;10.40;99.90;;;;;;4117694;28;20054;-56
2023/05/16 01:45:26;;;;;;;24.02;3.80;;;10.60;99.90;;;;;;4117656;28;20118;-57
2023/05/16 01:47:31;;;;;;;24.42;4.32;;;10.60;99.90;;;;;;4117760;28;20405;-56
2023/05/16 01:49:36;;;;;;;16.90;3.47;;;10.50;99.90;;;;;;4116671;28;20050;-58
2023/05/16 01:51:40;;;;;;;18.40;3.70;;;10.40;99.90;;;;;;4117518;28;20485;-57
2023/05/16 01:53:44;;;;;;;22.70;4.07;;;10.40;99.90;;;;;;4117607;28;20101;-57
2023/05/16 01:55:48;;;;;;;21.85;4.05;;;10.30;99.90;;;;;;4117370;28;20192;-57
2023/05/16 01:57:51;;;;;;;25.50;4.50;;;10.30;99.90;;;;;;4117476;28;20050;-56
2023/05/16 01:59:56;;;;;;;23.55;3.47;;;10.30;99.90;;;;;;4116508;28;20097;-57
2023/05/16 02:01:58;;;;;;;22.30;4.35;;;10.30;99.90;;;;;;4117313;28;20054;-57
2023/05/16 02:04:00;;;;;;;17.83;3.90;;;10.40;99.90;;;;;;4117377;28;20121;-57
2023/05/16 02:06:03;;;;;;;16.05;3.85;;;10.20;99.90;;;;;;4116991;28;20563;-56
2023/05/16 02:08:07;;;;;;;17.02;3.47;;;10.40;99.90;;;;;;4116355;28;20160;-58
2023/05/16 02:10:10;;;;;;;17.42;3.80;;;10.30;99.90;;;;;;4117168;28;20054;-57
2023/05/16 02:12:12;;;;;;;20.02;3.85;;;10.30;99.90;;;;;;4117500;28;20057;-56
2023/05/16 02:14:15;;;;;;;19.33;3.80;;;10.40;99.90;;;;;;4117057;28;20040;-57
2023/05/16 02:16:18;;;;;;;19.50;4.55;;;10.40;99.90;;;;;;4117271;28;20053;-57
2023/05/16 02:18:22;;;;;;;13.48;3.45;;;10.30;99.90;;;;;;4116044;28;20429;-59
2023/05/16 02:20:24;;;;;;;20.92;3.95;;;10.30;99.90;;;;;;4116870;28;20072;-57
2023/05/16 02:22:26;;;;;;;20.60;3.38;;;10.20;99.90;;;;;;4117228;28;20051;-57
2023/05/16 02:24:28;;;;;;;25.05;4.68;;;10.40;99.90;;;;;;4116684;28;20051;-57
2023/05/16 02:26:30;;;;;;;20.23;3.22;;;10.30;99.90;;;;;;4126645;28;20081;-57
2023/05/16 02:28:32;;;;;;;19.00;3.58;;;10.40;99.90;;;;;;4131965;28;20050;-57
2023/05/16 02:30:34;;;;;;;18.50;3.80;;;10.40;99.90;;;;;;4132778;28;20050;-57
2023/05/16 02:32:38;;;;;;;15.27;3.58;;;10.40;99.90;;;;;;4133094;28;20451;-58
2023/05/16 02:34:41;;;;;;;15.45;3.22;;;10.40;99.90;;;;;;4121427;28;20043;-57
2023/05/16 02:36:44;;;;;;;16.67;3.75;;;10.40;99.90;;;;;;4116773;28;20291;-56
2023/05/16 02:38:46;;;;;;;19.42;3.97;;;10.50;99.90;;;;;;4115452;28;20101;-58
2023/05/16 02:40:48;;;;;;;17.73;3.40;;;10.50;99.90;;;;;;4116886;28;20139;-57
2023/05/16 02:42:50;;;;;;;13.18;3.13;;;10.40;99.90;;;;;;4116871;28;20117;-56
2023/05/16 02:44:52;;;;;;;18.15;3.50;;;10.40;99.90;;;;;;4116445;28;20051;-56
2023/05/16 02:46:54;;;;;;;17.95;3.92;;;10.40;99.90;;;;;;4116789;28;20053;-57
2023/05/16 02:48:58;;;;;;;18.50;3.35;;;10.50;99.90;;;;;;4115343;28;20098;-57
2023/05/16 02:51:00;;;;;;;19.88;3.28;;;10.50;99.90;;;;;;4117491;28;20043;-55
2023/05/16 02:53:02;;;;;;;20.48;3.97;;;10.50;99.90;;;;;;4117295;28;20047;-54
2023/05/16 02:55:06;;;;;;;21.40;4.53;;;10.50;99.90;;;;;;4116550;28;20405;-58
2023/05/16 02:57:28;;;;;;;17.55;3.83;;;10.50;99.90;;;;;;4116228;28;20457;-55
2023/05/16 02:59:30;;;;;;;19.58;3.33;;;10.60;99.90;;;;;;4115419;28;20061;-55
2023/05/16 03:01:33;;;;;;;18.52;3.55;;;10.60;99.90;;;;;;4116772;28;20054;-54
2023/05/16 03:03:35;;;;;;;20.52;3.90;;;10.70;99.90;;;;;;4116280;28;20061;-53
2023/05/16 03:05:39;;;;;;;30.85;3.60;;;10.60;99.90;;;;;;4116239;28;20046;-52
2023/05/16 03:07:41;;;;;;;18.15;3.60;;;10.50;99.90;;;;;;4115450;28;20051;-53
2023/05/16 03:09:43;;;;;;;28.80;4.40;;;10.50;99.90;;;;;;4115331;28;20047;-53
2023/05/16 03:11:46;;;;;;;18.60;3.97;;;10.40;99.90;;;;;;4115361;28;20051;-54
2023/05/16 03:13:48;;;;;;;22.15;3.95;;;10.30;99.90;;;;;;4117362;28;20073;-56
2023/05/16 03:15:52;;;;;;;18.40;3.83;;;10.30;99.90;;;;;;4116318;28;20485;-54
2023/05/16 03:17:54;;;;;;;16.40;3.78;;;10.30;99.90;;;;;;4116160;28;20099;-54
2023/05/16 03:19:56;;;;;;;27.40;4.32;;;10.30;99.90;;;;;;4114991;28;20047;-55
2023/05/16 03:21:59;;;;;;;18.00;4.10;;;10.30;99.90;;;;;;4116302;28;20456;-53
2023/05/16 03:24:01;;;;;;;22.73;3.60;;;10.40;99.90;;;;;;4116014;28;20047;-55
2023/05/16 03:26:03;;;;;;;18.85;3.55;;;10.40;99.90;;;;;;4122004;28;20073;-53
2023/05/16 03:28:06;;;;;;;15.13;3.70;;;10.40;99.90;;;;;;4132259;28;20043;-55
2023/05/16 03:30:09;;;;;;;13.57;3.03;;;10.40;99.90;;;;;;4130968;28;20061;-53
2023/05/16 03:32:11;;;;;;;25.70;4.22;;;10.30;99.90;;;;;;4131839;28;20046;-54
2023/05/16 03:34:13;;;;;;;20.90;4.57;;;10.30;99.90;;;;;;4124434;28;20051;-54
2023/05/16 03:36:15;;;;;;;19.17;3.60;;;10.30;99.90;;;;;;4115963;28;20049;-53
2023/05/16 03:38:20;;;;;;;18.20;3.55;;;10.20;99.90;;;;;;4115439;28;20047;-54
2023/05/16 03:40:22;;;;;;;21.17;3.63;;;10.20;99.90;;;;;;4115576;28;20083;-53
2023/05/16 03:42:24;;;;;;;17.52;3.15;;;10.10;99.90;;;;;;4115682;28;20046;-54
2023/05/16 03:44:27;;;;;;;15.25;3.60;;;10.20;99.90;;;;;;4115763;28;20053;-54
2023/05/16 03:46:29;;;;;;;17.92;3.47;;;10.10;99.90;;;;;;4115754;28;20121;-54
2023/05/16 03:48:31;;;;;;;25.90;4.28;;;10.10;99.90;;;;;;4114814;28;20504;-54
2023/05/16 03:50:33;;;;;;;21.35;4.40;;;10.00;99.90;;;;;;4115307;28;20057;-54
2023/05/16 03:52:36;;;;;;;17.67;3.47;;;10.10;99.90;;;;;;4115705;28;20051;-58
2023/05/16 03:54:42;;;;;;;24.30;4.20;;;10.10;99.90;;;;;;4115517;28;20046;-53
2023/05/16 03:56:44;;;;;;;16.98;3.85;;;9.90;99.90;;;;;;4115798;28;20050;-56
2023/05/16 03:58:46;;;;;;;12.98;3.53;;;9.90;99.90;;;;;;4114515;28;20164;-53
2023/05/16 04:00:48;;;;;;;18.15;3.95;;;9.80;99.90;;;;;;4115204;28;20050;-54
2023/05/16 04:02:50;;;;;;;16.65;3.60;;;9.70;99.90;;;;;;4098569;29;20532;-53
2023/05/16 04:04:52;;;;;;;17.25;3.33;;;9.60;99.90;;;;;;4115584;28;20065;-55
2023/05/16 04:06:54;;;;;;;20.55;3.78;;;9.60;99.90;;;;;;4115914;28;20054;-53
2023/05/16 04:08:57;;;;;;;21.15;3.50;;;9.60;99.90;;;;;;4114551;28;20054;-57
2023/05/16 04:11:00;;;;;;;19.10;4.30;;;9.70;99.90;;;;;;4115575;28;20043;-54
2023/05/16 04:13:02;;;;;;;17.80;3.58;;;9.70;99.90;;;;;;4115729;28;20057;-55
2023/05/16 04:15:06;;;;;;;17.00;3.20;;;9.80;99.90;;;;;;4115531;28;20050;-54
2023/05/16 04:17:08;;;;;;;17.83;4.03;;;9.80;99.90;;;;;;4116044;28;20051;-54
2023/05/16 04:19:10;;;;;;;16.02;3.35;;;9.80;99.90;;;;;;4115248;28;20064;-54
2023/05/16 04:21:14;;;;;;;22.15;4.30;;;9.90;99.90;;;;;;4115854;28;20446;-54
2023/05/16 04:23:16;;;;;;;22.85;3.92;;;9.80;99.90;;;;;;4115447;28;20133;-58
2023/05/16 04:25:18;;;;;;;21.88;3.78;;;9.80;99.90;;;;;;4115936;28;20121;-54
2023/05/16 04:27:22;;;;;;;16.30;4.00;;;9.80;99.90;;;;;;4099394;29;20058;-53
2023/05/16 04:29:25;;;;;;;17.80;3.57;;;9.90;99.90;;;;;;4097991;29;20051;-55
2023/05/16 04:31:27;;;;;;;15.95;3.38;;;9.90;99.90;;;;;;4099397;29;20445;-53
2023/05/16 04:33:29;;;;;;;13.07;3.20;;;10.00;99.90;;;;;;4100749;28;20390;-54
2023/05/16 04:35:32;;;;;;;24.98;4.30;;;9.90;99.90;;;;;;4115276;28;20445;-53
2023/05/16 04:37:34;;;;;;;18.60;3.28;;;9.90;99.90;;;;;;4115281;28;20050;-55
2023/05/16 04:39:37;;;;;;;18.35;3.55;;;10.00;99.90;;;;;;4114101;28;20058;-55
2023/05/16 04:41:39;;;;;;;24.63;4.80;;;10.10;99.90;;;;;;4115358;28;20559;-54
2023/05/16 04:43:43;;;;;;;27.75;4.22;;;10.00;99.90;;;;;;4115094;28;20051;-54
2023/05/16 04:45:46;;;;;;;17.60;3.30;;;10.10;99.90;;;;;;4113652;28;20113;-56
2023/05/16 04:47:48;;;;;;;20.30;4.00;;;10.20;99.90;;;;;;4098112;29;20580;-55
2023/05/16 04:49:50;;;;;;;21.90;4.10;;;10.10;99.90;;;;;;4114123;28;20365;-54
2023/05/16 04:51:52;;;;;;;21.05;4.22;;;10.10;99.90;;;;;;4115184;28;20047;-54
2023/05/16 04:53:54;;;;;;;17.50;3.78;;;10.20;99.90;;;;;;4115295;28;20042;-54
2023/05/16 04:55:56;;;;;;;18.98;4.43;;;10.20;99.90;;;;;;4114987;28;20043;-53
2023/05/16 04:57:58;;;;;;;19.17;3.75;;;10.20;99.90;;;;;;4116450;28;20084;-61
2023/05/16 05:00:05;;;;;;;17.73;3.95;;;10.10;99.90;;;;;;4114452;28;20548;-52
2023/05/16 05:02:07;;;;;;;13.15;3.50;;;10.20;99.90;;;;;;4115701;28;20051;-54
2023/05/16 05:04:10;;;;;;;20.90;3.78;;;10.30;99.90;;;;;;4118086;28;20051;-54
2023/05/16 05:06:12;;;;;;;18.30;4.38;;;10.20;99.90;;;;;;4118577;28;20496;-53
2023/05/16 05:08:15;;;;;;;20.52;4.13;;;10.30;99.90;;;;;;4118839;28;20565;-54
2023/05/16 05:10:17;;;;;;;16.52;3.65;;;10.40;99.90;;;;;;4117378;28;20473;-58
2023/05/16 05:12:19;;;;;;;15.90;3.35;;;10.40;99.90;;;;;;4118533;28;20389;-55
2023/05/16 05:14:21;;;;;;;18.85;3.05;;;10.50;99.90;;;;;;4118264;28;20051;-54
2023/05/16 05:16:25;;;;;;;17.17;4.05;;;10.50;99.90;;;;;;4118083;28;20424;-55
2023/05/16 05:18:27;;;;;;;15.65;3.28;;;10.50;99.90;;;;;;4118060;28;20105;-53
2023/05/16 05:20:29;;;;;;;12.00;2.83;;;10.60;99.90;;;;;;4117151;28;20507;-55
2023/05/16 05:22:31;;;;;;;15.73;3.60;;;10.70;99.90;;;;;;4118037;28;20113;-54
2023/05/16 05:24:33;;;;;;;15.43;3.20;;;10.70;99.90;;;;;;4117687;28;20066;-53
2023/05/16 05:26:35;;;;;;;20.38;3.60;;;10.80;99.90;;;;;;4128419;28;20444;-53
2023/05/16 05:28:37;;;;;;;16.77;3.03;;;10.70;99.90;;;;;;4133421;28;20054;-55
2023/05/16 05:30:40;;;;;;;18.38;4.10;;;10.70;99.90;;;;;;4133295;28;20066;-55
2023/05/16 05:32:45;;;;;;;18.47;3.70;;;10.80;99.90;;;;;;4134192;28;20061;-53
2023/05/16 05:34:47;;;;;;;14.20;3.50;;;10.90;99.90;;;;;;4121738;28;20493;-53
2023/05/16 05:36:49;;;;;;;16.60;3.40;;;10.90;99.90;;;;;;4117884;28;20043;-53
2023/05/16 05:38:51;;;;;;;16.83;3.03;;;10.90;99.90;;;;;;4116508;28;20051;-56
2023/05/16 05:40:53;;;;;;;19.33;3.67;;;10.90;99.80;;;;;;4117607;28;20047;-54
2023/05/16 05:42:55;;;;;;;15.43;3.30;;;10.90;99.90;;;;;;4117609;28;20049;-54
2023/05/16 05:44:57;;;;;;;22.40;4.57;;;10.90;99.90;;;;;;4116263;28;20095;-54
2023/05/16 05:46:59;;;;;;;19.55;3.47;;;11.00;99.90;;;;;;4117671;28;20042;-53
2023/05/16 05:49:03;;;;;;;17.63;2.97;;;11.10;99.90;;;;;;4116683;28;20137;-54
2023/05/16 05:51:05;;;;;;;20.27;3.50;;;11.30;99.90;;;;;;4117376;28;20062;-55
2023/05/16 05:53:07;;;;;;;13.43;3.10;;;11.30;99.00;;;;;;4117534;28;20051;-54
2023/05/16 05:55:09;;;;;;;24.40;4.00;;;11.30;99.20;;;;;;4117332;28;20047;-53
2023/05/16 05:57:11;;;;;;;21.10;3.83;;;11.30;98.80;;;;;;4117399;28;20058;-53
2023/05/16 05:59:14;;;;;;;21.10;3.58;;;11.20;98.60;;;;;;4115123;28;20395;-54
2023/05/16 06:01:16;;;;;;;21.52;3.88;;;11.20;98.50;;;;;;4117173;28;20126;-54
2023/05/16 06:03:19;;;;;;;17.17;3.28;;;11.20;98.30;;;;;;4117350;28;20051;-54
2023/05/16 06:05:23;;;;;;;24.40;3.28;;;11.20;98.20;;;;;;4117378;28;20105;-54
2023/05/16 06:07:25;;;;;;;21.40;3.70;;;11.20;97.80;;;;;;4117540;28;20465;-54
2023/05/16 06:09:27;;;;;;;18.25;3.70;;;11.10;98.00;;;;;;4116479;28;20066;-60
2023/05/16 06:11:29;;;;;;;23.52;3.58;;;11.10;98.20;;;;;;4116897;28;20130;-55
2023/05/16 06:13:31;;;;;;;26.98;3.58;;;11.20;98.10;;;;;;4116869;28;20058;-54
2023/05/16 06:15:33;;;;;;;23.88;3.83;;;11.10;97.80;;;;;;4117517;28;20075;-54
2023/05/16 06:17:35;;;;;;;29.83;4.15;;;11.10;98.00;;;;;;4117146;28;20062;-54
2023/05/16 06:19:37;;;;;;;24.60;4.78;;;11.20;98.10;;;;;;4116354;28;20086;-54
2023/05/16 06:21:40;;;;;;;46.85;4.72;;;11.30;97.80;;;;;;4115780;28;20051;-55
2023/05/16 06:23:43;;;;;;;20.15;3.30;;;11.20;97.30;;;;;;4117236;28;20062;-56
2023/05/16 06:25:45;;;;;;;50.65;5.35;;;11.30;97.60;;;;;;4120423;28;20054;-62
2023/05/16 06:27:47;;;;;;;33.05;4.68;;;11.30;97.50;;;;;;4133159;28;20054;-54
2023/05/16 06:29:49;;;;;;;21.35;3.70;;;11.30;97.80;;;;;;4132179;28;20054;-55
2023/05/16 06:31:51;;;;;;;50.75;4.95;;;11.30;97.60;;;;;;4132994;28;20065;-54
2023/05/16 06:33:53;;;;;;;32.92;4.03;;;11.20;97.60;;;;;;4126562;28;20047;-63
2023/05/16 06:35:55;;;;;;;29.63;5.03;;;11.20;97.40;;;;;;4117148;28;20057;-57
2023/05/16 06:37:59;;;;;;;50.83;5.20;;;11.20;97.60;;;;;;4117045;28;20051;-56
2023/05/16 06:40:01;;;;;;;71.43;6.57;;;11.20;98.40;;;;;;4115857;28;20054;-56
2023/05/16 06:42:03;;;;;;;51.67;5.32;;;11.20;97.60;;;;;;4117318;28;20405;-55
2023/05/16 06:44:06;;;;;;;25.98;4.75;;;11.10;97.50;;;;;;4117378;28;20043;-55
2023/05/16 06:46:08;;;;;;;22.67;4.38;;;11.10;98.00;;;;;;4118236;28;20047;-62
2023/05/16 06:48:10;;;;;;;26.20;3.65;;;11.20;97.90;;;;;;4116895;28;20055;-55
2023/05/16 06:50:12;;;;;;;20.42;3.85;;;11.20;97.80;;;;;;4115701;28;20055;-55
2023/05/16 06:52:14;;;;;;;17.15;3.10;;;11.30;98.20;;;;;;4117814;28;20050;-58
2023/05/16 06:54:18;;;;;;;18.77;2.80;;;11.30;97.80;;;;;;4117686;28;20101;-56
2023/05/16 06:56:20;;;;;;;24.02;4.32;;;11.30;97.90;;;;;;4116339;28;20074;-57
2023/05/16 06:58:22;;;;;;;31.48;3.88;;;11.30;98.10;;;;;;4116689;28;20050;-56
2023/05/16 07:00:24;;;;;;;23.98;4.32;;;11.40;98.00;;;;;;4115533;28;20416;-56
2023/05/16 07:02:27;;;;;;;23.80;3.78;;;11.50;97.70;;;;;;4116674;28;20047;-54
2023/05/16 07:04:29;;;;;;;18.85;3.83;;;11.50;97.90;;;;;;4116501;28;20074;-55
2023/05/16 07:06:32;;;;;;;20.45;3.55;;;11.70;98.20;;;;;;4116292;28;20086;-54
2023/05/16 07:08:35;;;;;;;23.38;4.05;;;11.90;97.60;;;;;;4116496;28;20058;-55
2023/05/16 07:10:39;;;;;;;22.10;3.80;;;12.00;97.60;;;;;;4114774;28;20050;-55
2023/05/16 07:12:42;;;;;;;26.42;3.55;;;12.10;96.90;;;;;;4116367;28;20453;-55
2023/05/16 07:14:44;;;;;;;17.42;2.88;;;12.30;97.30;;;;;;4116279;28;20122;-55
2023/05/16 07:16:46;;;;;;;19.58;3.67;;;12.50;96.60;;;;;;4116432;28;20124;-56
2023/05/16 07:18:49;;;;;;;17.15;3.75;;;12.50;96.20;;;;;;4116243;28;20122;-55
2023/05/16 07:20:51;;;;;;;19.55;4.03;;;12.60;95.80;;;;;;4115147;28;20121;-56
2023/05/16 07:22:56;;;;;;;21.20;3.88;;;12.60;95.90;;;;;;4116122;28;20047;-55
2023/05/16 07:24:59;;;;;;;;;;;12.80;95.90;;;;;;4115454;28;20102;-52
2023/05/16 07:27:04;;;;;;;14.75;3.25;;;12.70;96.00;;;;;;4130121;28;19988;-52
2023/05/16 07:29:06;;;;;;;22.17;3.15;;;12.70;95.40;;;;;;4131345;28;20081;-53
2023/05/16 07:31:08;;;;;;;16.23;3.47;;;12.60;95.90;;;;;;4131713;28;20069;-55
2023/05/16 07:33:10;;;;;;;14.00;3.55;;;12.60;95.70;;;;;;4132345;28;20506;-55
2023/05/16 07:35:12;;;;;;;24.05;4.55;;;12.70;96.50;;;;;;4116653;28;20046;-56
2023/05/16 07:37:15;;;;;;;18.33;3.88;;;12.70;95.60;;;;;;4116074;28;20050;-56
2023/05/16 07:39:17;;;;;;;16.85;4.05;;;12.70;95.80;;;;;;4114529;28;20429;-56
2023/05/16 07:41:20;;;;;;;23.45;3.42;;;12.70;96.00;;;;;;4115746;28;20133;-57
2023/05/16 07:43:23;;;;;;;32.08;3.90;;;12.90;95.60;;;;;;4115982;28;20051;-52
2023/05/16 07:45:26;;;;;;;27.45;4.15;;;13.10;95.30;;;;;;4116058;28;20071;-54
2023/05/16 07:47:28;;;;;;;19.02;3.47;;;13.10;95.50;;;;;;4115610;28;20055;-54
2023/05/16 07:49:30;;;;;;;18.85;3.35;;;13.00;95.20;;;;;;4114646;28;20047;-51
2023/05/16 07:51:32;;;;;;;18.55;3.30;;;12.80;94.80;;;;;;4115680;28;20498;-54
2023/05/16 07:53:34;;;;;;;11.35;2.60;;;12.90;95.30;;;;;;4115364;28;20043;-54
2023/05/16 07:55:36;;;;;;;13.88;3.22;;;12.80;95.00;;;;;;4115539;28;20397;-55
2023/05/16 07:57:38;;;;;;;21.48;3.28;;;12.90;95.10;;;;;;4115535;28;20047;-56
2023/05/16 07:59:42;;;;;;;24.33;4.57;;;12.90;94.90;;;;;;4114541;28;20043;-55
2023/05/16 08:01:44;;;;;;;18.20;3.03;;;13.00;94.90;;;;;;4115562;28;20412;-55
2023/05/16 08:03:47;;;;;;;22.50;3.33;;;12.80;95.50;;;;;;4115732;28;20089;-56
2023/05/16 08:05:50;;;;;;;23.25;3.13;;;12.80;95.00;;;;;;4115675;28;20057;-55
2023/05/16 08:07:52;;;;;;;21.80;3.30;;;12.90;94.80;;;;;;4115285;28;20051;-54
2023/05/16 08:09:54;;;;;;;21.88;3.28;;;12.70;94.20;;;;;;4114426;28;20045;-55
2023/05/16 08:11:56;;;;;;;16.15;2.80;;;12.90;94.80;;;;;;4115596;28;20042;-54
2023/05/16 08:13:58;;;;;;;22.95;3.47;;;13.00;94.20;;;;;;4115522;28;20054;-56
2023/05/16 08:16:02;;;;;;;18.13;3.63;;;13.00;93.90;;;;;;4115418;28;20460;-55
2023/05/16 08:18:12;;;;;;;17.45;3.08;;;13.00;93.70;;;;;;4115552;28;20053;-55
2023/05/16 08:20:14;;;;;;;20.98;2.97;;;13.00;93.60;;;;;;4114387;28;20058;-55
2023/05/16 08:22:17;;;;;;;18.65;2.72;;;13.10;94.10;;;;;;4115270;28;20053;-56
2023/05/16 08:24:19;;;;;;;25.88;3.28;;;13.20;93.50;;;;;;4115327;28;20059;-55
2023/05/16 08:26:21;;;;;;;24.17;3.30;;;13.30;93.70;;;;;;4123602;28;20052;-55
2023/05/16 08:28:23;;;;;;;18.77;2.92;;;13.40;93.20;;;;;;4131935;28;20085;-54
2023/05/16 08:30:25;;;;;;;16.08;2.78;;;13.60;93.00;;;;;;4130524;28;20073;-54
2023/05/16 08:32:29;;;;;;;13.70;2.83;;;13.60;93.00;;;;;;4131483;28;20137;-54
2023/05/16 08:34:32;;;;;;;15.35;2.83;;;13.70;92.90;;;;;;4121697;28;20051;-55
2023/05/16 08:36:34;;;;;;;18.90;2.22;;;13.70;92.70;;;;;;4114715;28;20047;-55
2023/05/16 08:38:36;;;;;;;23.00;3.20;;;13.50;92.30;;;;;;4115029;28;20365;-55
2023/05/16 08:40:39;;;;;;;18.67;3.35;;;13.50;92.20;;;;;;4114191;28;20109;-55
2023/05/16 08:42:41;;;;;;;14.60;2.53;;;13.40;92.10;;;;;;4115197;28;20492;-54
2023/05/16 08:44:46;;;;;;;25.42;3.10;;;13.40;92.00;;;;;;4115099;28;20047;-55
2023/05/16 08:46:51;;;;;;;12.98;3.15;;;13.50;91.60;;;;;;4115226;28;20053;-55
2023/05/16 08:48:59;;;;;;;15.02;2.63;;;13.70;91.40;;;;;;4115106;28;20047;-55
2023/05/16 08:51:02;;;;;;;14.25;2.38;;;13.90;91.40;;;;;;4113754;28;20141;-54
2023/05/16 08:53:06;;;;;;;13.05;2.88;;;13.90;92.30;;;;;;4115117;28;20043;-54
2023/05/16 08:55:10;;;;;;;14.77;2.72;;;13.80;92.00;;;;;;4115241;28;20394;-55
2023/05/16 08:57:13;;;;;;;19.73;2.80;;;13.70;91.70;;;;;;4115318;28;20047;-52
2023/05/16 08:59:28;;;;;;;18.02;3.17;;;13.70;91.90;;;;;;4114979;28;20050;-55
2023/05/16 09:01:47;;;;;;;16.58;2.88;;;13.90;91.50;;;;;;4115058;28;20051;-55
2023/05/16 09:03:51;;;;;;;13.93;2.67;;;14.00;91.50;;;;;;4068140;28;20430;-54
2023/05/16 09:06:20;;;;;;;16.30;2.72;;;14.10;91.80;;;;;;4114667;28;20062;-55
2023/05/16 09:08:23;;;;;;;12.63;1.70;;;14.10;90.40;;;;;;4115086;28;20529;-55
2023/05/16 09:10:25;;;;;;;16.05;2.40;;;14.10;90.70;;;;;;4113834;28;20528;-55
2023/05/16 09:12:27;;;;;;;10.30;2.67;;;14.20;90.60;;;;;;4115098;28;20068;-55
2023/05/16 09:14:30;;;;;;;13.77;2.45;;;14.30;89.60;;;;;;4114945;28;20114;-55
2023/05/16 09:16:32;;;;;;;9.05;2.35;;;14.40;90.90;;;;;;4114802;28;20054;-54
2023/05/16 09:18:35;;;;;;;15.77;2.22;;;14.50;91.00;;;;;;4114964;28;20089;-53
2023/05/16 09:20:45;;;;;;;16.23;2.38;;;14.40;90.50;;;;;;4113595;28;20071;-53
2023/05/16 09:22:53;;;;;;;15.00;2.22;;;14.40;90.30;;;;;;4114898;28;20054;-53
2023/05/16 09:24:59;;;;;;;12.98;2.70;;;14.60;90.50;;;;;;4115042;28;20054;-54
2023/05/16 09:27:08;;;;;;;17.15;3.00;;;14.50;90.50;;;;;;4128879;28;20054;-57
2023/05/16 09:29:10;;;;;;;12.90;2.15;;;14.50;90.20;;;;;;4130930;28;20472;-52
2023/05/16 09:31:25;;;;;;;14.20;2.60;;;14.60;90.80;;;;;;4130047;28;20133;-53
2023/05/16 09:33:28;;;;;;;17.95;2.58;;;14.60;90.30;;;;;;4129581;28;20054;-53
2023/05/16 09:35:30;;;;;;;8.65;1.80;;;14.60;90.10;;;;;;4114558;28;20047;-52
2023/05/16 09:37:35;;;;;;;13.98;2.47;;;14.60;89.70;;;;;;4115060;28;20480;-54
2023/05/16 09:39:46;;;;;;;24.35;3.40;;;14.70;90.50;;;;;;4113789;28;20043;-53
2023/05/16 09:41:51;;;;;;;20.05;2.80;;;14.80;88.30;;;;;;4114646;28;20070;-56
2023/05/16 09:43:54;;;;;;;19.02;2.67;;;14.80;88.30;;;;;;4114515;28;20061;-53
2023/05/16 09:45:58;;;;;;;29.48;3.95;;;14.80;87.90;;;;;;4114974;28;20122;-53
2023/05/16 09:48:03;;;;;;;42.40;4.53;;;14.70;88.50;;;;;;4115350;28;20046;-53
2023/05/16 09:50:07;;;;;;;27.55;2.95;;;14.70;87.10;;;;;;4116697;28;20050;-53
2023/05/16 09:52:09;;;;;;;14.43;2.50;;;14.60;87.00;;;;;;4117585;28;20117;-53
2023/05/16 09:54:12;;;;;;;11.82;2.20;;;14.70;88.20;;;;;;4117757;28;20404;-52
2023/05/16 09:56:15;;;;;;;12.10;2.35;;;14.90;87.50;;;;;;4117455;28;20046;-57
2023/05/16 09:58:18;;;;;;;8.70;2.28;;;14.80;87.20;;;;;;4117272;28;20131;-56
2023/05/16 10:00:20;;;;;;;11.40;2.85;;;14.80;86.40;;;;;;4116330;28;20129;-56
2023/05/16 10:02:23;;;;;;;13.77;2.15;;;14.70;86.50;;;;;;4117300;28;20066;-55
2023/05/16 10:04:25;;;;;;;15.60;2.42;;;14.80;85.60;;;;;;4116931;28;20043;-55
2023/05/16 10:06:30;;;;;;;13.38;1.92;;;14.90;86.70;;;;;;4117324;28;20057;-56
2023/05/16 10:08:35;;;;;;;9.35;1.90;;;15.00;86.10;;;;;;4117297;28;20058;-56
2023/05/16 10:10:38;;;;;;;11.18;2.40;;;15.10;85.60;;;;;;4116111;28;20046;-55
2023/05/16 10:12:42;;;;;;;8.68;1.52;;;15.00;85.20;;;;;;4117143;28;20050;-56
2023/05/16 10:14:45;;;;;;;16.25;2.60;;;15.10;86.40;;;;;;4117356;28;20074;-57
2023/05/16 10:16:48;;;;;;;6.03;1.50;;;15.00;85.90;;;;;;4116990;28;20051;-56
2023/05/16 10:18:52;;;;;;;9.52;1.58;;;15.10;86.80;;;;;;4116994;28;20105;-53
2023/05/16 10:20:55;;;;;;;12.45;2.72;;;15.20;85.70;;;;;;4116093;28;20109;-53
2023/05/16 10:22:58;;;;;;;12.68;2.20;;;15.20;86.20;;;;;;4117058;28;20118;-53
2023/05/16 10:25:07;;;;;;;5.75;1.42;;;15.30;86.70;;;;;;4117271;28;20050;-55
2023/05/16 10:27:10;;;;;;;9.77;1.92;;;15.50;85.80;;;;;;4117111;28;20071;-53
2023/05/16 10:29:14;;;;;;;13.82;1.90;;;15.70;87.00;;;;;;4116915;28;20421;-53
2023/05/16 10:31:17;;;;;;;9.00;1.92;;;16.00;86.50;;;;;;4116198;28;20050;-53
2023/05/16 10:33:19;;;;;;;5.65;1.50;;;15.90;85.00;;;;;;4116367;28;20069;-52
2023/05/16 10:35:22;;;;;;;5.43;1.30;;;15.80;84.80;;;;;;4101306;29;20439;-52